sensor_id;sensor_type;location;lat;lon;timestamp;pressure;altitude;pressure_sealevel;temperature;humidity
81628;BME280;71036;51.102;6.514;2023-09-12T00:01:56;100607.16;;;21.11;75.20
81628;BME280;71036;51.102;6.514;2023-09-12T00:04:22;100581.53;;;21.12;75.03
81628;BME280;71036;51.102;6.514;2023-09-12T00:06:47;100575.91;;;21.05;75.72
81628;BME280;71036;51.102;6.514;2023-09-12T00:09:12;100569.59;;;21.05;75.84
81628;BME280;71036;51.102;6.514;2023-09-12T00:11:37;100579.59;;;20.98;76.57
81628;BME280;71036;51.102;6.514;2023-09-12T00:14:03;100581.47;;;20.97;76.90
81628;BME280;71036;51.102;6.514;2023-09-12T00:16:28;100585.81;;;21.06;76.47
81628;BME280;71036;51.102;6.514;2023-09-12T00:18:53;100593.75;;;21.01;76.65
81628;BME280;71036;51.102;6.514;2023-09-12T00:21:19;100592.78;;;20.94;77.45
81628;BME280;71036;51.102;6.514;2023-09-12T00:23:44;100586.34;;;20.73;79.02
81628;BME280;71036;51.102;6.514;2023-09-12T00:26:09;100584.09;;;20.76;78.29
81628;BME280;71036;51.102;6.514;2023-09-12T00:28:34;100592.28;;;20.76;78.39
81628;BME280;71036;51.102;6.514;2023-09-12T00:31:00;100593.50;;;20.74;78.61
81628;BME280;71036;51.102;6.514;2023-09-12T00:33:25;100595.22;;;20.75;78.67
81628;BME280;71036;51.102;6.514;2023-09-12T00:35:50;100595.03;;;20.76;78.79
81628;BME280;71036;51.102;6.514;2023-09-12T00:38:15;100588.53;;;20.77;78.85
81628;BME280;71036;51.102;6.514;2023-09-12T00:40:41;100591.34;;;20.69;79.33
81628;BME280;71036;51.102;6.514;2023-09-12T00:43:06;100597.09;;;20.74;79.17
81628;BME280;71036;51.102;6.514;2023-09-12T00:45:31;100611.13;;;20.71;79.57
81628;BME280;71036;51.102;6.514;2023-09-12T00:47:58;100589.19;;;20.79;78.78
81628;BME280;71036;51.102;6.514;2023-09-12T00:50:24;100555.81;;;20.69;81.87
81628;BME280;71036;51.102;6.514;2023-09-12T00:52:50;100550.38;;;20.46;86.62
81628;BME280;71036;51.102;6.514;2023-09-12T00:55:16;100558.56;;;20.24;86.74
81628;BME280;71036;51.102;6.514;2023-09-12T00:57:42;100574.31;;;19.99;87.50
81628;BME280;71036;51.102;6.514;2023-09-12T01:00:11;100579.00;;;19.82;88.06
81628;BME280;71036;51.102;6.514;2023-09-12T01:02:41;100589.34;;;19.64;90.55
81628;BME280;71036;51.102;6.514;2023-09-12T01:05:08;100601.91;;;19.73;93.87
81628;BME280;71036;51.102;6.514;2023-09-12T01:07:35;100609.09;;;19.74;92.26
81628;BME280;71036;51.102;6.514;2023-09-12T01:10:01;100611.25;;;19.79;90.42
81628;BME280;71036;51.102;6.514;2023-09-12T01:12:27;100611.53;;;19.92;91.18
81628;BME280;71036;51.102;6.514;2023-09-12T01:14:52;100601.63;;;19.99;90.51
81628;BME280;71036;51.102;6.514;2023-09-12T01:17:17;100601.78;;;19.97;90.31
81628;BME280;71036;51.102;6.514;2023-09-12T01:19:43;100591.63;;;19.83;90.15
81628;BME280;71036;51.102;6.514;2023-09-12T01:28:08;100582.84;;;19.65;92.68
81628;BME280;71036;51.102;6.514;2023-09-12T01:30:35;100586.25;;;19.67;93.75
81628;BME280;71036;51.102;6.514;2023-09-12T01:33:01;100583.94;;;19.56;92.25
81628;BME280;71036;51.102;6.514;2023-09-12T01:35:27;100587.16;;;19.60;92.66
81628;BME280;71036;51.102;6.514;2023-09-12T01:37:52;100584.38;;;19.68;94.40
81628;BME280;71036;51.102;6.514;2023-09-12T01:40:23;100582.44;;;19.76;91.38
81628;BME280;71036;51.102;6.514;2023-09-12T01:42:51;100576.25;;;19.60;91.75
81628;BME280;71036;51.102;6.514;2023-09-12T01:45:18;100569.56;;;19.62;93.22
81628;BME280;71036;51.102;6.514;2023-09-12T01:47:45;100563.50;;;19.52;93.32
81628;BME280;71036;51.102;6.514;2023-09-12T01:50:12;100571.81;;;19.58;94.44
81628;BME280;71036;51.102;6.514;2023-09-12T01:52:38;100576.53;;;19.65;95.44
81628;BME280;71036;51.102;6.514;2023-09-12T01:55:04;100585.72;;;19.72;92.66
81628;BME280;71036;51.102;6.514;2023-09-12T01:57:30;100603.31;;;19.69;93.15
81628;BME280;71036;51.102;6.514;2023-09-12T01:59:55;100606.75;;;19.63;92.70
81628;BME280;71036;51.102;6.514;2023-09-12T02:02:21;100607.72;;;19.78;94.19
81628;BME280;71036;51.102;6.514;2023-09-12T02:04:51;100589.69;;;19.92;93.55
81628;BME280;71036;51.102;6.514;2023-09-12T02:07:18;100582.00;;;19.95;91.92
81628;BME280;71036;51.102;6.514;2023-09-12T02:09:43;100589.69;;;19.92;91.95
81628;BME280;71036;51.102;6.514;2023-09-12T02:12:08;100580.53;;;19.85;91.69
81628;BME280;71036;51.102;6.514;2023-09-12T02:14:34;100572.88;;;19.80;92.19
81628;BME280;71036;51.102;6.514;2023-09-12T02:16:59;100574.75;;;19.80;92.16
81628;BME280;71036;51.102;6.514;2023-09-12T02:19:24;100571.53;;;19.76;92.50
81628;BME280;71036;51.102;6.514;2023-09-12T02:21:49;100567.47;;;19.72;92.93
81628;BME280;71036;51.102;6.514;2023-09-12T02:24:15;100562.25;;;19.63;92.57
81628;BME280;71036;51.102;6.514;2023-09-12T02:26:40;100561.13;;;19.49;93.34
81628;BME280;71036;51.102;6.514;2023-09-12T02:29:06;100549.56;;;19.39;93.70
81628;BME280;71036;51.102;6.514;2023-09-12T02:31:32;100551.97;;;19.26;93.95
81628;BME280;71036;51.102;6.514;2023-09-12T02:33:57;100565.94;;;19.39;94.74
81628;BME280;71036;51.102;6.514;2023-09-12T02:36:23;100569.44;;;19.55;93.99
81628;BME280;71036;51.102;6.514;2023-09-12T02:38:48;100577.41;;;19.65;94.05
81628;BME280;71036;51.102;6.514;2023-09-12T02:41:13;100574.97;;;19.70;93.47
81628;BME280;71036;51.102;6.514;2023-09-12T02:43:38;100580.28;;;19.72;93.65
81628;BME280;71036;51.102;6.514;2023-09-12T02:46:04;100578.56;;;19.71;92.49
81628;BME280;71036;51.102;6.514;2023-09-12T02:48:29;100566.94;;;19.77;93.13
81628;BME280;71036;51.102;6.514;2023-09-12T02:50:54;100582.69;;;19.67;92.50
81628;BME280;71036;51.102;6.514;2023-09-12T02:53:20;100579.81;;;19.60;92.87
81628;BME280;71036;51.102;6.514;2023-09-12T02:55:45;100584.63;;;19.50;93.48
81628;BME280;71036;51.102;6.514;2023-09-12T02:58:10;100580.25;;;19.41;94.25
81628;BME280;71036;51.102;6.514;2023-09-12T03:00:39;100574.28;;;19.37;95.10
81628;BME280;71036;51.102;6.514;2023-09-12T03:03:05;100580.91;;;19.35;95.33
81628;BME280;71036;51.102;6.514;2023-09-12T03:05:31;100578.53;;;19.32;93.72
81628;BME280;71036;51.102;6.514;2023-09-12T03:07:56;100575.19;;;19.22;93.81
81628;BME280;71036;51.102;6.514;2023-09-12T03:10:21;100562.91;;;19.18;94.50
81628;BME280;71036;51.102;6.514;2023-09-12T03:12:47;100573.66;;;19.19;94.70
81628;BME280;71036;51.102;6.514;2023-09-12T03:15:12;100566.69;;;19.17;95.12
81628;BME280;71036;51.102;6.514;2023-09-12T03:17:37;100556.84;;;18.99;96.04
81628;BME280;71036;51.102;6.514;2023-09-12T03:20:05;100545.00;;;18.84;96.60
81628;BME280;71036;51.102;6.514;2023-09-12T03:22:33;100537.13;;;18.89;96.56
81628;BME280;71036;51.102;6.514;2023-09-12T03:25:03;100529.13;;;18.88;96.07
81628;BME280;71036;51.102;6.514;2023-09-12T03:27:28;100527.25;;;18.88;96.54
81628;BME280;71036;51.102;6.514;2023-09-12T03:29:53;100524.19;;;18.83;96.51
81628;BME280;71036;51.102;6.514;2023-09-12T03:32:19;100521.13;;;18.86;96.13
81628;BME280;71036;51.102;6.514;2023-09-12T03:34:44;100524.34;;;18.82;96.65
81628;BME280;71036;51.102;6.514;2023-09-12T03:37:09;100525.91;;;18.84;96.43
81628;BME280;71036;51.102;6.514;2023-09-12T03:39:34;100511.56;;;18.90;96.10
81628;BME280;71036;51.102;6.514;2023-09-12T03:42:00;100512.22;;;19.00;95.14
81628;BME280;71036;51.102;6.514;2023-09-12T03:44:25;100509.81;;;19.06;95.75
81628;BME280;71036;51.102;6.514;2023-09-12T03:46:50;100515.09;;;19.07;95.11
81628;BME280;71036;51.102;6.514;2023-09-12T03:49:15;100507.44;;;19.02;95.18
81628;BME280;71036;51.102;6.514;2023-09-12T03:51:41;100503.19;;;19.00;95.23
81628;BME280;71036;51.102;6.514;2023-09-12T03:54:06;100491.78;;;18.96;95.42
81628;BME280;71036;51.102;6.514;2023-09-12T03:56:31;100497.22;;;19.05;94.59
81628;BME280;71036;51.102;6.514;2023-09-12T03:58:56;100499.91;;;19.13;93.69
81628;BME280;71036;51.102;6.514;2023-09-12T04:01:23;100506.47;;;19.26;94.69
81628;BME280;71036;51.102;6.514;2023-09-12T04:03:49;100495.72;;;19.33;94.07
81628;BME280;71036;51.102;6.514;2023-09-12T04:06:14;100497.97;;;19.21;94.39
81628;BME280;71036;51.102;6.514;2023-09-12T04:08:39;100498.19;;;19.12;94.66
81628;BME280;71036;51.102;6.514;2023-09-12T04:11:04;100501.97;;;19.11;94.88
81628;BME280;71036;51.102;6.514;2023-09-12T04:13:29;100501.25;;;19.17;95.26
81628;BME280;71036;51.102;6.514;2023-09-12T04:15:55;100510.00;;;19.35;93.98
81628;BME280;71036;51.102;6.514;2023-09-12T04:18:20;100520.75;;;19.36;94.15
81628;BME280;71036;51.102;6.514;2023-09-12T04:20:46;100523.28;;;19.38;93.60
81628;BME280;71036;51.102;6.514;2023-09-12T04:23:11;100528.91;;;19.44;93.95
81628;BME280;71036;51.102;6.514;2023-09-12T04:25:36;100522.31;;;19.39;94.31
81628;BME280;71036;51.102;6.514;2023-09-12T04:28:02;100522.25;;;19.47;93.98
81628;BME280;71036;51.102;6.514;2023-09-12T04:30:27;100513.19;;;19.54;94.01
81628;BME280;71036;51.102;6.514;2023-09-12T04:32:52;100516.75;;;19.55;93.58
81628;BME280;71036;51.102;6.514;2023-09-12T04:35:18;100510.81;;;19.51;93.09
81628;BME280;71036;51.102;6.514;2023-09-12T04:37:44;100499.91;;;19.51;93.07
81628;BME280;71036;51.102;6.514;2023-09-12T04:40:10;100488.50;;;19.48;93.16
81628;BME280;71036;51.102;6.514;2023-09-12T04:42:35;100479.16;;;19.42;93.53
81628;BME280;71036;51.102;6.514;2023-09-12T04:45:01;100482.44;;;19.30;93.92
81628;BME280;71036;51.102;6.514;2023-09-12T04:47:26;100495.47;;;19.12;94.16
81628;BME280;71036;51.102;6.514;2023-09-12T04:49:52;100512.22;;;19.00;94.73
81628;BME280;71036;51.102;6.514;2023-09-12T04:52:18;100519.38;;;18.93;95.43
81628;BME280;71036;51.102;6.514;2023-09-12T04:54:43;100519.72;;;18.98;96.25
81628;BME280;71036;51.102;6.514;2023-09-12T04:57:08;100518.53;;;19.01;96.09
81628;BME280;71036;51.102;6.514;2023-09-12T04:59:33;100539.13;;;19.03;95.94
81628;BME280;71036;51.102;6.514;2023-09-12T05:01:59;100553.78;;;19.02;96.03
81628;BME280;71036;51.102;6.514;2023-09-12T05:04:24;100564.31;;;19.06;96.26
81628;BME280;71036;51.102;6.514;2023-09-12T05:06:49;100572.16;;;19.17;95.54
81628;BME280;71036;51.102;6.514;2023-09-12T05:09:15;100561.91;;;19.19;95.46
81628;BME280;71036;51.102;6.514;2023-09-12T05:11:40;100566.34;;;19.20;95.84
81628;BME280;71036;51.102;6.514;2023-09-12T05:14:05;100572.28;;;19.23;95.06
81628;BME280;71036;51.102;6.514;2023-09-12T05:16:30;100588.66;;;19.15;95.51
81628;BME280;71036;51.102;6.514;2023-09-12T05:18:56;100587.50;;;19.10;95.60
81628;BME280;71036;51.102;6.514;2023-09-12T05:21:21;100595.13;;;19.14;95.69
81628;BME280;71036;51.102;6.514;2023-09-12T05:23:46;100606.38;;;19.11;96.14
81628;BME280;71036;51.102;6.514;2023-09-12T05:26:12;100625.47;;;19.11;97.09
81628;BME280;71036;51.102;6.514;2023-09-12T05:28:37;100675.97;;;18.99;98.85
81628;BME280;71036;51.102;6.514;2023-09-12T05:31:02;100717.16;;;18.88;99.71
81628;BME280;71036;51.102;6.514;2023-09-12T05:33:28;100729.94;;;18.71;100.00
81628;BME280;71036;51.102;6.514;2023-09-12T05:35:53;100713.75;;;18.62;100.00
81628;BME280;71036;51.102;6.514;2023-09-12T05:38:18;100557.59;;;18.77;100.00
81628;BME280;71036;51.102;6.514;2023-09-12T05:40:44;100552.84;;;18.63;100.00
81628;BME280;71036;51.102;6.514;2023-09-12T05:43:09;100554.53;;;18.64;100.00
81628;BME280;71036;51.102;6.514;2023-09-12T05:45:34;100581.47;;;18.51;100.00
81628;BME280;71036;51.102;6.514;2023-09-12T05:48:00;100587.25;;;18.56;100.00
81628;BME280;71036;51.102;6.514;2023-09-12T05:50:25;100569.38;;;18.45;100.00
81628;BME280;71036;51.102;6.514;2023-09-12T05:52:50;100566.97;;;18.42;100.00
81628;BME280;71036;51.102;6.514;2023-09-12T05:55:16;100555.56;;;18.39;100.00
81628;BME280;71036;51.102;6.514;2023-09-12T05:57:42;100551.50;;;18.43;100.00
81628;BME280;71036;51.102;6.514;2023-09-12T06:00:08;100559.84;;;18.58;100.00
81628;BME280;71036;51.102;6.514;2023-09-12T06:02:37;100556.22;;;18.73;100.00
81628;BME280;71036;51.102;6.514;2023-09-12T06:05:03;100563.03;;;18.85;100.00
81628;BME280;71036;51.102;6.514;2023-09-12T06:07:28;100567.81;;;18.67;100.00
81628;BME280;71036;51.102;6.514;2023-09-12T06:09:53;100572.28;;;18.60;100.00
81628;BME280;71036;51.102;6.514;2023-09-12T06:12:19;100572.44;;;18.59;100.00
81628;BME280;71036;51.102;6.514;2023-09-12T06:14:44;100570.41;;;18.61;100.00
81628;BME280;71036;51.102;6.514;2023-09-12T06:17:09;100593.56;;;18.57;100.00
81628;BME280;71036;51.102;6.514;2023-09-12T06:19:34;100600.53;;;18.59;100.00
81628;BME280;71036;51.102;6.514;2023-09-12T06:22:00;100583.97;;;18.85;100.00
81628;BME280;71036;51.102;6.514;2023-09-12T06:24:25;100588.25;;;18.87;100.00
81628;BME280;71036;51.102;6.514;2023-09-12T06:26:51;100607.34;;;18.71;100.00
81628;BME280;71036;51.102;6.514;2023-09-12T06:29:17;100584.13;;;18.91;100.00
81628;BME280;71036;51.102;6.514;2023-09-12T06:31:42;100591.59;;;19.06;100.00
81628;BME280;71036;51.102;6.514;2023-09-12T06:34:08;100597.84;;;19.14;100.00
81628;BME280;71036;51.102;6.514;2023-09-12T06:36:33;100596.81;;;19.31;100.00
81628;BME280;71036;51.102;6.514;2023-09-12T06:38:59;100604.44;;;19.36;100.00
81628;BME280;71036;51.102;6.514;2023-09-12T06:41:26;100587.56;;;19.40;100.00
81628;BME280;71036;51.102;6.514;2023-09-12T06:43:52;100596.09;;;19.45;100.00
81628;BME280;71036;51.102;6.514;2023-09-12T06:46:17;100604.03;;;19.55;100.00
81628;BME280;71036;51.102;6.514;2023-09-12T06:48:43;100592.88;;;19.42;100.00
81628;BME280;71036;51.102;6.514;2023-09-12T06:51:10;100588.66;;;19.62;100.00
81628;BME280;71036;51.102;6.514;2023-09-12T06:53:35;100592.25;;;19.63;100.00
81628;BME280;71036;51.102;6.514;2023-09-12T06:56:07;100587.97;;;19.68;100.00
81628;BME280;71036;51.102;6.514;2023-09-12T06:58:32;100601.06;;;19.73;100.00
81628;BME280;71036;51.102;6.514;2023-09-12T07:01:07;100590.63;;;19.76;100.00
81628;BME280;71036;51.102;6.514;2023-09-12T07:03:33;100588.34;;;19.88;100.00
81628;BME280;71036;51.102;6.514;2023-09-12T07:05:59;100581.22;;;20.09;99.53
81628;BME280;71036;51.102;6.514;2023-09-12T07:08:25;100580.19;;;20.10;98.72
81628;BME280;71036;51.102;6.514;2023-09-12T07:10:50;100577.19;;;20.20;98.72
81628;BME280;71036;51.102;6.514;2023-09-12T07:13:16;100572.22;;;20.46;97.82
81628;BME280;71036;51.102;6.514;2023-09-12T07:15:41;100559.63;;;20.45;97.75
81628;BME280;71036;51.102;6.514;2023-09-12T07:18:06;100557.88;;;20.67;96.67
81628;BME280;71036;51.102;6.514;2023-09-12T07:20:33;100555.84;;;20.84;95.94
81628;BME280;71036;51.102;6.514;2023-09-12T07:22:59;100541.81;;;21.16;95.81
81628;BME280;71036;51.102;6.514;2023-09-12T07:25:24;100539.25;;;21.29;93.17
81628;BME280;71036;51.102;6.514;2023-09-12T07:27:50;100547.66;;;21.28;93.72
81628;BME280;71036;51.102;6.514;2023-09-12T07:30:15;100551.13;;;21.51;92.50
81628;BME280;71036;51.102;6.514;2023-09-12T07:32:41;100553.09;;;21.57;93.10
81628;BME280;71036;51.102;6.514;2023-09-12T07:35:06;100564.22;;;21.41;93.08
81628;BME280;71036;51.102;6.514;2023-09-12T07:39:57;100569.47;;;21.71;90.12
81628;BME280;71036;51.102;6.514;2023-09-12T07:42:23;100567.25;;;21.82;90.51
81628;BME280;71036;51.102;6.514;2023-09-12T07:44:49;100575.56;;;21.38;88.97
81628;BME280;71036;51.102;6.514;2023-09-12T07:47:14;100579.78;;;21.55;89.87
81628;BME280;71036;51.102;6.514;2023-09-12T07:49:39;100578.38;;;21.59;91.38
81628;BME280;71036;51.102;6.514;2023-09-12T07:52:05;100575.59;;;21.88;87.65
81628;BME280;71036;51.102;6.514;2023-09-12T07:54:30;100570.59;;;22.13;86.15
81628;BME280;71036;51.102;6.514;2023-09-12T07:56:56;100580.56;;;22.63;86.21
81628;BME280;71036;51.102;6.514;2023-09-12T07:59:21;100579.34;;;22.65;84.33
81628;BME280;71036;51.102;6.514;2023-09-12T08:01:47;100580.63;;;23.31;81.95
81628;BME280;71036;51.102;6.514;2023-09-12T08:04:12;100583.94;;;23.20;80.51
81628;BME280;71036;51.102;6.514;2023-09-12T08:06:40;100579.16;;;22.95;81.62
81628;BME280;71036;51.102;6.514;2023-09-12T08:09:06;100575.56;;;24.30;76.55
81628;BME280;71036;51.102;6.514;2023-09-12T08:11:31;100578.13;;;24.77;73.36
81628;BME280;71036;51.102;6.514;2023-09-12T08:13:57;100588.22;;;26.87;64.32
81628;BME280;71036;51.102;6.514;2023-09-12T08:16:22;100594.59;;;28.86;60.34
81628;BME280;71036;51.102;6.514;2023-09-12T08:18:47;100600.25;;;29.72;55.44
81628;BME280;71036;51.102;6.514;2023-09-12T08:21:13;100599.03;;;31.91;50.33
81628;BME280;71036;51.102;6.514;2023-09-12T08:23:38;100610.41;;;33.23;45.37
81628;BME280;71036;51.102;6.514;2023-09-12T08:26:03;100608.47;;;31.30;50.46
81628;BME280;71036;51.102;6.514;2023-09-12T08:28:29;100606.06;;;30.11;51.59
81628;BME280;71036;51.102;6.514;2023-09-12T08:30:54;100617.09;;;28.66;55.38
81628;BME280;71036;51.102;6.514;2023-09-12T08:33:19;100624.78;;;30.43;52.35
81628;BME280;71036;51.102;6.514;2023-09-12T08:35:44;100629.34;;;29.58;53.70
81628;BME280;71036;51.102;6.514;2023-09-12T08:38:10;100628.06;;;30.29;51.31
81628;BME280;71036;51.102;6.514;2023-09-12T08:40:35;100625.53;;;31.39;49.02
81628;BME280;71036;51.102;6.514;2023-09-12T08:43:01;100625.91;;;30.76;49.50
81628;BME280;71036;51.102;6.514;2023-09-12T08:45:29;100634.38;;;30.13;51.79
81628;BME280;71036;51.102;6.514;2023-09-12T08:47:56;100636.78;;;28.58;55.81
81628;BME280;71036;51.102;6.514;2023-09-12T08:50:22;100630.09;;;27.88;58.42
81628;BME280;71036;51.102;6.514;2023-09-12T08:52:48;100639.25;;;30.34;50.99
81628;BME280;71036;51.102;6.514;2023-09-12T08:55:14;100653.88;;;30.29;50.88
81628;BME280;71036;51.102;6.514;2023-09-12T08:57:43;100660.66;;;31.45;47.43
81628;BME280;71036;51.102;6.514;2023-09-12T09:00:10;100657.16;;;32.09;45.95
81628;BME280;71036;51.102;6.514;2023-09-12T09:02:38;100656.22;;;31.27;47.67
81628;BME280;71036;51.102;6.514;2023-09-12T09:05:05;100660.09;;;32.20;46.32
81628;BME280;71036;51.102;6.514;2023-09-12T09:07:33;100651.69;;;30.31;50.11
81628;BME280;71036;51.102;6.514;2023-09-12T09:10:01;100655.81;;;30.29;50.09
81628;BME280;71036;51.102;6.514;2023-09-12T09:12:28;100650.00;;;30.30;49.82
81628;BME280;71036;51.102;6.514;2023-09-12T09:14:53;100641.84;;;32.07;44.55
81628;BME280;71036;51.102;6.514;2023-09-12T09:17:19;100640.94;;;35.65;38.57
81628;BME280;71036;51.102;6.514;2023-09-12T09:19:44;100644.69;;;37.08;34.82
81628;BME280;71036;51.102;6.514;2023-09-12T09:22:10;100637.59;;;35.38;37.95
81628;BME280;71036;51.102;6.514;2023-09-12T09:24:35;100640.59;;;35.87;36.00
81628;BME280;71036;51.102;6.514;2023-09-12T09:27:01;100638.69;;;35.62;37.56
81628;BME280;71036;51.102;6.514;2023-09-12T09:29:27;100638.72;;;34.66;39.01
81628;BME280;71036;51.102;6.514;2023-09-12T09:32:01;100639.00;;;34.60;39.21
81628;BME280;71036;51.102;6.514;2023-09-12T09:34:27;100634.63;;;33.18;40.85
81628;BME280;71036;51.102;6.514;2023-09-12T09:36:56;100630.41;;;30.93;47.25
81628;BME280;71036;51.102;6.514;2023-09-12T09:39:27;100625.84;;;32.46;44.15
81628;BME280;71036;51.102;6.514;2023-09-12T09:41:55;100619.06;;;34.41;38.53
81628;BME280;71036;51.102;6.514;2023-09-12T09:44:22;100634.16;;;35.81;37.99
81628;BME280;71036;51.102;6.514;2023-09-12T09:46:54;100626.63;;;35.77;36.06
81628;BME280;71036;51.102;6.514;2023-09-12T09:49:21;100629.59;;;36.06;35.09
81628;BME280;71036;51.102;6.514;2023-09-12T09:51:47;100631.28;;;34.15;39.03
81628;BME280;71036;51.102;6.514;2023-09-12T09:54:13;100629.28;;;36.66;33.85
81628;BME280;71036;51.102;6.514;2023-09-12T09:56:46;100628.69;;;36.25;34.07
81628;BME280;71036;51.102;6.514;2023-09-12T09:59:20;100633.84;;;37.53;32.52
81628;BME280;71036;51.102;6.514;2023-09-12T10:01:48;100629.50;;;37.09;32.87
81628;BME280;71036;51.102;6.514;2023-09-12T10:04:14;100636.97;;;38.60;29.82
81628;BME280;71036;51.102;6.514;2023-09-12T10:06:42;100633.81;;;38.06;31.29
81628;BME280;71036;51.102;6.514;2023-09-12T10:09:10;100635.81;;;37.53;30.87
81628;BME280;71036;51.102;6.514;2023-09-12T10:11:37;100627.16;;;35.84;33.27
81628;BME280;71036;51.102;6.514;2023-09-12T10:14:04;100631.66;;;35.75;33.74
81628;BME280;71036;51.102;6.514;2023-09-12T10:16:31;100626.41;;;36.27;33.77
81628;BME280;71036;51.102;6.514;2023-09-12T10:19:11;100621.66;;;36.28;33.83
81628;BME280;71036;51.102;6.514;2023-09-12T10:21:59;100621.63;;;36.33;34.35
81628;BME280;71036;51.102;6.514;2023-09-12T10:24:27;100623.16;;;36.00;34.79
81628;BME280;71036;51.102;6.514;2023-09-12T10:26:55;100624.31;;;34.17;37.69
81628;BME280;71036;51.102;6.514;2023-09-12T10:29:21;100609.06;;;34.55;36.94
81628;BME280;71036;51.102;6.514;2023-09-12T10:31:48;100618.34;;;35.16;35.96
81628;BME280;71036;51.102;6.514;2023-09-12T10:34:14;100611.25;;;36.77;33.02
81628;BME280;71036;51.102;6.514;2023-09-12T10:36:40;100608.75;;;34.31;36.93
81628;BME280;71036;51.102;6.514;2023-09-12T10:39:07;100608.53;;;34.94;36.95
81628;BME280;71036;51.102;6.514;2023-09-12T10:41:37;100605.31;;;34.09;37.74
81628;BME280;71036;51.102;6.514;2023-09-12T10:44:06;100602.78;;;32.77;40.94
81628;BME280;71036;51.102;6.514;2023-09-12T10:46:36;100600.38;;;32.05;43.77
81628;BME280;71036;51.102;6.514;2023-09-12T10:49:03;100598.34;;;31.41;44.87
81628;BME280;71036;51.102;6.514;2023-09-12T10:51:31;100587.28;;;31.84;42.90
81628;BME280;71036;51.102;6.514;2023-09-12T10:53:56;100594.72;;;32.54;41.77
81628;BME280;71036;51.102;6.514;2023-09-12T10:56:22;100588.72;;;30.93;46.55
81628;BME280;71036;51.102;6.514;2023-09-12T11:01:36;100592.91;;;33.85;39.03
81628;BME280;71036;51.102;6.514;2023-09-12T11:06:46;100601.91;;;36.04;34.28
81628;BME280;71036;51.102;6.514;2023-09-12T11:09:26;100607.06;;;35.67;35.40
81628;BME280;71036;51.102;6.514;2023-09-12T11:11:55;100605.47;;;34.90;37.86
81628;BME280;71036;51.102;6.514;2023-09-12T11:14:21;100603.16;;;35.48;36.45
81628;BME280;71036;51.102;6.514;2023-09-12T11:19:45;100619.16;;;36.21;34.87
81628;BME280;71036;51.102;6.514;2023-09-12T11:22:44;100626.69;;;36.31;34.01
81628;BME280;71036;51.102;6.514;2023-09-12T11:25:22;100626.59;;;36.85;32.92
81628;BME280;71036;51.102;6.514;2023-09-12T11:30:17;100628.34;;;36.76;33.95
81628;BME280;71036;51.102;6.514;2023-09-12T11:32:45;100621.31;;;36.34;32.98
81628;BME280;71036;51.102;6.514;2023-09-12T11:35:11;100623.31;;;35.44;34.80
81628;BME280;71036;51.102;6.514;2023-09-12T11:37:36;100621.13;;;35.01;35.75
81628;BME280;71036;51.102;6.514;2023-09-12T11:42:42;100610.28;;;35.94;33.35
81628;BME280;71036;51.102;6.514;2023-09-12T11:45:11;100624.44;;;35.49;35.46
81628;BME280;71036;51.102;6.514;2023-09-12T11:47:41;100625.09;;;36.59;33.03
81628;BME280;71036;51.102;6.514;2023-09-12T11:50:07;100630.91;;;34.88;36.95
81628;BME280;71036;51.102;6.514;2023-09-12T11:52:36;100627.59;;;36.11;33.59
81628;BME280;71036;51.102;6.514;2023-09-12T11:55:02;100633.88;;;34.37;36.01
81628;BME280;71036;51.102;6.514;2023-09-12T11:57:28;100630.56;;;33.83;36.41
81628;BME280;71036;51.102;6.514;2023-09-12T11:59:55;100620.09;;;33.11;38.84
81628;BME280;71036;51.102;6.514;2023-09-12T12:02:20;100625.34;;;35.19;34.87
81628;BME280;71036;51.102;6.514;2023-09-12T12:04:46;100623.94;;;35.21;34.80
81628;BME280;71036;51.102;6.514;2023-09-12T12:07:12;100624.44;;;35.38;33.30
81628;BME280;71036;51.102;6.514;2023-09-12T12:09:38;100614.31;;;35.68;34.79
81628;BME280;71036;51.102;6.514;2023-09-12T12:12:14;100611.06;;;35.20;33.83
81628;BME280;71036;51.102;6.514;2023-09-12T12:14:40;100604.41;;;36.49;32.33
81628;BME280;71036;51.102;6.514;2023-09-12T12:17:09;100600.41;;;36.22;32.70
81628;BME280;71036;51.102;6.514;2023-09-12T12:19:36;100592.66;;;35.93;33.62
81628;BME280;71036;51.102;6.514;2023-09-12T12:22:05;100585.78;;;35.66;34.04
81628;BME280;71036;51.102;6.514;2023-09-12T12:24:41;100585.31;;;34.88;35.59
81628;BME280;71036;51.102;6.514;2023-09-12T12:27:07;100583.66;;;34.92;35.58
81628;BME280;71036;51.102;6.514;2023-09-12T12:29:34;100579.06;;;37.03;31.95
81628;BME280;71036;51.102;6.514;2023-09-12T12:32:00;100591.34;;;36.74;32.31
81628;BME280;71036;51.102;6.514;2023-09-12T12:34:27;100579.75;;;34.98;36.09
81628;BME280;71036;51.102;6.514;2023-09-12T12:36:53;100585.34;;;34.93;34.76
81628;BME280;71036;51.102;6.514;2023-09-12T12:39:20;100586.19;;;34.68;35.66
81628;BME280;71036;51.102;6.514;2023-09-12T12:41:46;100562.97;;;34.68;35.89
81628;BME280;71036;51.102;6.514;2023-09-12T12:44:11;100571.78;;;35.71;34.81
81628;BME280;71036;51.102;6.514;2023-09-12T12:46:50;100560.16;;;34.38;37.36
81628;BME280;71036;51.102;6.514;2023-09-12T12:49:17;100551.50;;;35.20;34.96
81628;BME280;71036;51.102;6.514;2023-09-12T12:51:42;100546.75;;;34.34;37.32
81628;BME280;71036;51.102;6.514;2023-09-12T12:54:08;100546.59;;;35.56;35.43
81628;BME280;71036;51.102;6.514;2023-09-12T12:56:33;100549.28;;;34.71;36.74
81628;BME280;71036;51.102;6.514;2023-09-12T12:59:00;100555.78;;;33.79;37.94
81628;BME280;71036;51.102;6.514;2023-09-12T13:01:29;100551.81;;;31.96;41.59
81628;BME280;71036;51.102;6.514;2023-09-12T13:03:54;100551.44;;;32.14;41.11
81628;BME280;71036;51.102;6.514;2023-09-12T13:06:22;100560.59;;;31.06;41.87